Time;durP1;ratioP1;P1;durP2;ratioP2;P2;SDS_P1;SDS_P2;PMS_P1;PMS_P2;Temp;Humidity;BMP_temperature;BMP_pressure;BME280_temperature;BME280_humidity;BME280_pressure;Samples;Min_cycle;Max_cycle;Signal;HPM_P1;HPM_P2
2020/12/25 00:01:47;;;;;;;9.33;3.83;;;;;;;;;;5100720;28;20182;-56
2020/12/25 00:04:16;;;;;;;4.67;2.80;;;;;;;;;;5114522;28;20187;-57
2020/12/25 00:06:42;;;;;;;3.30;2.40;;;;;;;;;;5117116;28;20210;-56
2020/12/25 00:09:13;;;;;;;5.63;2.63;;;;;;;;;;5106908;28;20175;-55
2020/12/25 00:11:39;;;;;;;3.43;2.43;;;;;;;;;;5100452;27;20614;-55
2020/12/25 00:14:06;;;;;;;5.20;2.83;;;;;;;;;;5098053;28;20179;-56
2020/12/25 00:16:32;;;;;;;3.07;2.40;;;;;;;;;;5109462;28;20183;-57
2020/12/25 00:18:58;;;;;;;5.70;2.63;;;;;;;;;;5098823;28;20529;-56
2020/12/25 00:21:25;;;;;;;3.83;2.33;;;;;;;;;;5101362;28;20187;-56
2020/12/25 00:23:51;;;;;;;7.30;2.47;;;;;;;;;;5095530;28;20204;-56
2020/12/25 00:26:21;;;;;;;6.03;2.50;;;;;;;;;;5080812;28;20177;-55
2020/12/25 00:28:47;;;;;;;4.63;2.87;;;;;;;;;;5088644;28;20164;-56
2020/12/25 00:31:21;;;;;;;4.00;2.27;;;;;;;;;;5091123;28;20188;-55
2020/12/25 00:33:47;;;;;;;2.77;2.50;;;;;;;;;;5095716;28;20198;-56
2020/12/25 00:36:13;;;;;;;4.40;2.83;;;;;;;;;;5093551;28;20199;-57
2020/12/25 00:38:39;;;;;;;5.20;2.47;;;;;;;;;;5078139;28;20626;-55
2020/12/25 00:41:05;;;;;;;4.17;2.57;;;;;;;;;;5101485;27;20186;-56
2020/12/25 00:43:31;;;;;;;4.20;2.13;;;;;;;;;;5116386;27;20197;-56
2020/12/25 00:46:00;;;;;;;4.80;2.50;;;;;;;;;;5107218;28;20225;-56
2020/12/25 00:48:27;;;;;;;5.67;2.40;;;;;;;;;;5093851;28;20203;-56
2020/12/25 00:50:53;;;;;;;3.23;2.07;;;;;;;;;;5110557;28;20637;-55
2020/12/25 00:53:19;;;;;;;4.63;2.30;;;;;;;;;;5103011;27;20183;-56
2020/12/25 00:55:45;;;;;;;5.80;2.87;;;;;;;;;;5094565;28;20175;-55
2020/12/25 00:58:11;;;;;;;5.77;2.57;;;;;;;;;;5100860;28;20217;-57
2020/12/25 01:00:37;;;;;;;5.00;2.10;;;;;;;;;;5098785;28;20188;-56
2020/12/25 01:03:03;;;;;;;4.27;2.40;;;;;;;;;;5074239;28;20624;-56
2020/12/25 01:05:29;;;;;;;3.50;2.20;;;;;;;;;;5102114;28;20214;-55
2020/12/25 01:07:55;;;;;;;5.83;2.93;;;;;;;;;;5073440;28;20670;-55
2020/12/25 01:10:21;;;;;;;4.70;3.30;;;;;;;;;;5101462;28;20183;-56
2020/12/25 01:12:47;;;;;;;4.17;2.17;;;;;;;;;;5105865;27;20649;-56
2020/12/25 01:15:13;;;;;;;4.57;2.00;;;;;;;;;;5094627;28;20207;-56
2020/12/25 01:17:39;;;;;;;5.83;2.73;;;;;;;;;;5093820;28;20179;-56
2020/12/25 01:20:05;;;;;;;5.77;2.27;;;;;;;;;;5101157;28;20175;-55
2020/12/25 01:22:31;;;;;;;4.10;2.23;;;;;;;;;;5091160;28;20195;-57
2020/12/25 01:24:57;;;;;;;7.20;2.60;;;;;;;;;;5093187;28;20183;-56
2020/12/25 01:27:23;;;;;;;4.80;2.53;;;;;;;;;;5099150;28;20739;-55
2020/12/25 01:29:49;;;;;;;4.20;2.03;;;;;;;;;;5091631;28;20187;-55
2020/12/25 01:32:15;;;;;;;5.03;2.13;;;;;;;;;;5090820;28;20186;-56
2020/12/25 01:34:41;;;;;;;2.17;1.80;;;;;;;;;;5094373;28;20179;-58
2020/12/25 01:37:07;;;;;;;4.23;2.20;;;;;;;;;;5090998;28;20199;-56
2020/12/25 01:39:33;;;;;;;2.63;2.20;;;;;;;;;;5086733;28;20183;-56
2020/12/25 01:41:59;;;;;;;5.23;1.90;;;;;;;;;;5086127;28;20543;-55
2020/12/25 01:44:25;;;;;;;5.33;2.70;;;;;;;;;;5105535;28;20175;-55
2020/12/25 01:46:52;;;;;;;3.97;1.93;;;;;;;;;;5083907;28;20203;-58
2020/12/25 01:49:18;;;;;;;5.33;2.90;;;;;;;;;;5109676;28;20167;-56
2020/12/25 01:51:44;;;;;;;3.63;2.47;;;;;;;;;;5110502;28;20250;-56
2020/12/25 01:54:10;;;;;;;3.07;2.23;;;;;;;;;;5103748;28;20667;-56
2020/12/25 01:56:36;;;;;;;3.23;1.90;;;;;;;;;;5100085;28;20203;-58
2020/12/25 01:59:02;;;;;;;5.10;2.07;;;;;;;;;;5101115;28;20178;-56
2020/12/25 02:01:29;;;;;;;4.80;2.27;;;;;;;;;;5109438;28;20183;-55
2020/12/25 02:03:55;;;;;;;4.20;2.00;;;;;;;;;;5105851;28;20179;-56
2020/12/25 02:06:21;;;;;;;5.13;1.83;;;;;;;;;;5109771;28;20214;-55
2020/12/25 02:08:46;;;;;;;2.10;1.73;;;;;;;;;;5096144;28;20175;-57
2020/12/25 02:11:13;;;;;;;2.73;2.00;;;;;;;;;;5097451;28;20744;-55
2020/12/25 02:13:39;;;;;;;2.50;2.13;;;;;;;;;;5093619;28;20180;-55
2020/12/25 02:16:07;;;;;;;7.00;2.10;;;;;;;;;;5109492;28;20228;-56
2020/12/25 02:18:33;;;;;;;3.80;1.90;;;;;;;;;;5096885;28;20180;-56
2020/12/25 02:21:03;;;;;;;4.47;1.97;;;;;;;;;;5103716;28;20187;-55
2020/12/25 02:23:29;;;;;;;3.53;1.60;;;;;;;;;;5082565;28;20570;-55
2020/12/25 02:25:55;;;;;;;5.03;2.20;;;;;;;;;;5094511;28;20236;-55
2020/12/25 02:28:21;;;;;;;3.10;1.77;;;;;;;;;;5098971;28;20245;-55
2020/12/25 02:30:47;;;;;;;4.50;1.83;;;;;;;;;;5113814;28;20218;-55
2020/12/25 02:33:13;;;;;;;4.27;2.20;;;;;;;;;;5097157;28;20534;-55
2020/12/25 02:35:39;;;;;;;5.27;2.20;;;;;;;;;;5111794;28;20533;-56
2020/12/25 02:38:05;;;;;;;3.10;1.87;;;;;;;;;;5112444;28;20187;-55
2020/12/25 02:40:31;;;;;;;4.33;1.77;;;;;;;;;;5087766;27;20179;-56
2020/12/25 02:42:57;;;;;;;3.23;1.93;;;;;;;;;;5074630;28;20544;-57
2020/12/25 02:45:23;;;;;;;8.83;1.97;;;;;;;;;;5108097;28;20202;-56
2020/12/25 02:47:49;;;;;;;4.87;1.80;;;;;;;;;;5108276;28;20259;-56
2020/12/25 02:50:15;;;;;;;8.30;2.17;;;;;;;;;;5111525;28;20228;-56
2020/12/25 02:52:41;;;;;;;1.93;1.53;;;;;;;;;;5101903;28;20176;-55
2020/12/25 02:55:07;;;;;;;3.97;1.90;;;;;;;;;;5104348;28;20603;-57
2020/12/25 02:57:33;;;;;;;3.90;1.80;;;;;;;;;;5112860;28;20206;-55
2020/12/25 02:59:59;;;;;;;5.90;1.83;;;;;;;;;;5102688;28;20211;-55
2020/12/25 03:02:25;;;;;;;4.43;1.90;;;;;;;;;;5092979;28;20536;-55
2020/12/25 03:04:51;;;;;;;4.77;2.10;;;;;;;;;;5107240;28;20701;-55
2020/12/25 03:07:17;;;;;;;8.03;2.43;;;;;;;;;;5109417;28;20203;-57
2020/12/25 03:09:43;;;;;;;3.83;1.63;;;;;;;;;;5098955;28;20217;-56
2020/12/25 03:12:09;;;;;;;3.97;1.67;;;;;;;;;;5095731;27;20179;-55
2020/12/25 03:14:35;;;;;;;5.83;2.80;;;;;;;;;;5098253;28;20631;-55
2020/12/25 03:17:01;;;;;;;6.33;1.70;;;;;;;;;;5092423;28;20184;-55
2020/12/25 03:19:27;;;;;;;6.20;2.27;;;;;;;;;;5102631;28;20706;-57
2020/12/25 03:21:53;;;;;;;4.20;2.17;;;;;;;;;;5093378;28;20661;-56
2020/12/25 03:24:19;;;;;;;6.30;1.80;;;;;;;;;;5099552;28;20201;-55
2020/12/25 03:26:45;;;;;;;3.43;2.00;;;;;;;;;;5112562;28;20219;-55
2020/12/25 03:29:11;;;;;;;5.37;2.23;;;;;;;;;;5087809;28;20853;-55
2020/12/25 03:31:38;;;;;;;6.33;2.50;;;;;;;;;;5096646;28;20231;-57
2020/12/25 03:34:04;;;;;;;4.13;1.90;;;;;;;;;;5099345;28;20175;-55
2020/12/25 03:36:30;;;;;;;5.70;2.20;;;;;;;;;;5094007;28;20171;-55
2020/12/25 03:38:56;;;;;;;5.23;2.10;;;;;;;;;;5103964;28;20853;-55
2020/12/25 03:41:22;;;;;;;4.03;1.77;;;;;;;;;;5125322;27;20436;-55
2020/12/25 03:43:48;;;;;;;6.03;2.23;;;;;;;;;;5111533;27;20186;-56
2020/12/25 03:46:14;;;;;;;4.10;2.30;;;;;;;;;;5094419;28;20212;-55
2020/12/25 03:48:40;;;;;;;4.53;1.93;;;;;;;;;;5101658;28;20521;-56
2020/12/25 03:51:06;;;;;;;6.83;2.10;;;;;;;;;;5091560;28;20171;-55
2020/12/25 03:53:32;;;;;;;4.73;1.90;;;;;;;;;;5099654;28;20689;-55
2020/12/25 03:55:58;;;;;;;7.00;2.10;;;;;;;;;;5091755;28;20184;-55
2020/12/25 03:58:25;;;;;;;9.03;2.63;;;;;;;;;;5099702;28;20175;-55
2020/12/25 04:00:51;;;;;;;5.10;2.10;;;;;;;;;;5109100;28;20186;-55
2020/12/25 04:03:17;;;;;;;4.47;2.27;;;;;;;;;;5094432;28;20187;-55
2020/12/25 04:05:43;;;;;;;4.53;2.40;;;;;;;;;;5111853;28;20622;-55
2020/12/25 04:08:09;;;;;;;8.63;2.77;;;;;;;;;;5100508;28;20290;-56
2020/12/25 04:10:35;;;;;;;3.83;2.27;;;;;;;;;;5118451;27;20560;-56
2020/12/25 04:13:01;;;;;;;4.17;2.37;;;;;;;;;;5113097;27;20175;-56
2020/12/25 04:15:27;;;;;;;8.07;3.13;;;;;;;;;;5110495;28;20205;-55
2020/12/25 04:17:54;;;;;;;4.97;2.73;;;;;;;;;;5101733;28;20176;-57
2020/12/25 04:20:20;;;;;;;7.17;2.90;;;;;;;;;;5075310;28;20916;-55
2020/12/25 04:22:46;;;;;;;5.37;3.00;;;;;;;;;;5074686;28;20186;-56
2020/12/25 04:25:12;;;;;;;9.07;3.30;;;;;;;;;;5095125;28;20584;-55
2020/12/25 04:27:38;;;;;;;5.77;3.53;;;;;;;;;;5092740;28;20282;-55
2020/12/25 04:30:04;;;;;;;8.20;2.47;;;;;;;;;;5088235;28;20285;-56
2020/12/25 04:32:30;;;;;;;6.40;3.50;;;;;;;;;;5101425;28;20189;-55
2020/12/25 04:34:56;;;;;;;9.37;4.20;;;;;;;;;;5105778;28;20417;-55
2020/12/25 04:37:22;;;;;;;7.63;3.17;;;;;;;;;;5094612;28;20184;-55
2020/12/25 04:39:48;;;;;;;5.73;3.03;;;;;;;;;;5107102;27;20175;-55
2020/12/25 04:42:14;;;;;;;7.03;3.13;;;;;;;;;;5132598;27;20193;-56
2020/12/25 04:44:40;;;;;;;6.73;2.70;;;;;;;;;;5116960;27;20610;-55
2020/12/25 04:47:11;;;;;;;8.33;3.10;;;;;;;;;;5110448;28;20468;-55
2020/12/25 04:49:38;;;;;;;6.63;2.90;;;;;;;;;;5102641;28;20420;-55
2020/12/25 04:52:07;;;;;;;7.23;3.67;;;;;;;;;;5077485;28;20186;-55
2020/12/25 04:54:34;;;;;;;5.00;2.90;;;;;;;;;;5095094;28;20187;-55
2020/12/25 04:57:00;;;;;;;7.53;2.97;;;;;;;;;;5095204;28;20179;-55
2020/12/25 04:59:29;;;;;;;5.50;2.73;;;;;;;;;;5100283;28;20505;-56
2020/12/25 05:01:56;;;;;;;5.47;2.50;;;;;;;;;;5091334;28;20262;-55
2020/12/25 05:04:23;;;;;;;5.90;2.87;;;;;;;;;;5100098;28;20907;-55
2020/12/25 05:06:51;;;;;;;5.17;3.00;;;;;;;;;;5110387;28;20543;-55
2020/12/25 05:09:17;;;;;;;4.37;2.40;;;;;;;;;;5080275;27;20413;-56
2020/12/25 05:11:43;;;;;;;6.63;2.80;;;;;;;;;;5105193;27;20175;-55
2020/12/25 05:14:09;;;;;;;3.27;2.07;;;;;;;;;;5097772;28;20934;-55
2020/12/25 05:16:37;;;;;;;3.23;2.00;;;;;;;;;;5110350;28;20462;-55
2020/12/25 05:19:05;;;;;;;5.97;2.30;;;;;;;;;;5102353;28;20963;-55
2020/12/25 05:21:38;;;;;;;5.07;2.10;;;;;;;;;;5090688;28;20410;-55
2020/12/25 05:24:05;;;;;;;5.97;2.33;;;;;;;;;;5096450;28;20519;-55
2020/12/25 05:26:32;;;;;;;3.53;2.10;;;;;;;;;;5093926;28;20418;-55
2020/12/25 05:28:59;;;;;;;5.57;2.77;;;;;;;;;;5108373;28;20440;-55
2020/12/25 05:31:25;;;;;;;5.27;2.40;;;;;;;;;;5101379;28;20457;-55
2020/12/25 05:33:51;;;;;;;5.67;2.33;;;;;;;;;;5105973;28;20413;-55
2020/12/25 05:36:17;;;;;;;5.63;2.30;;;;;;;;;;5110947;28;20437;-55
2020/12/25 05:38:48;;;;;;;5.10;2.10;;;;;;;;;;5105474;28;20420;-55
2020/12/25 05:41:14;;;;;;;5.67;2.27;;;;;;;;;;5110538;28;21019;-55
2020/12/25 05:43:46;;;;;;;4.77;2.13;;;;;;;;;;5093799;28;20453;-55
2020/12/25 05:46:13;;;;;;;7.23;2.87;;;;;;;;;;5105860;28;20406;-55
2020/12/25 05:48:39;;;;;;;6.97;1.90;;;;;;;;;;5109311;28;20802;-55
2020/12/25 05:51:11;;;;;;;6.17;2.20;;;;;;;;;;5110441;28;20892;-55
2020/12/25 05:53:37;;;;;;;10.83;2.70;;;;;;;;;;5074720;28;20421;-55
2020/12/25 05:56:03;;;;;;;5.47;2.43;;;;;;;;;;5095079;28;20418;-55
2020/12/25 05:58:34;;;;;;;6.90;2.50;;;;;;;;;;5096434;28;20429;-56
2020/12/25 06:01:01;;;;;;;4.40;2.30;;;;;;;;;;5096511;27;20903;-56
2020/12/25 06:03:27;;;;;;;6.43;2.73;;;;;;;;;;5104554;28;20442;-55
2020/12/25 06:05:56;;;;;;;5.77;2.20;;;;;;;;;;5079078;28;20460;-55
2020/12/25 06:08:48;;;;;;;5.97;2.00;;;;;;;;;;5101611;28;20969;-55
2020/12/25 06:11:17;;;;;;;10.03;2.90;;;;;;;;;;5065918;28;20764;-55
2020/12/25 06:13:43;;;;;;;8.30;2.37;;;;;;;;;;5097535;28;20456;-55
2020/12/25 06:16:13;;;;;;;5.40;2.00;;;;;;;;;;5114428;28;20401;-56
2020/12/25 06:18:48;;;;;;;5.33;2.27;;;;;;;;;;5111353;28;20987;-58
2020/12/25 06:21:21;;;;;;;6.80;3.00;;;;;;;;;;5112548;28;20447;-55
2020/12/25 06:23:48;;;;;;;5.97;3.60;;;;;;;;;;5107129;28;20423;-55
2020/12/25 06:26:18;;;;;;;8.83;2.90;;;;;;;;;;5084915;28;20413;-55
2020/12/25 06:28:44;;;;;;;3.47;2.27;;;;;;;;;;5109872;28;20785;-55
2020/12/25 06:31:11;;;;;;;5.47;2.20;;;;;;;;;;5117429;27;20803;-56
2020/12/25 06:33:38;;;;;;;3.87;2.40;;;;;;;;;;5105222;27;20772;-55
2020/12/25 06:36:04;;;;;;;9.40;3.20;;;;;;;;;;5096999;28;20441;-56
2020/12/25 06:38:34;;;;;;;5.30;2.90;;;;;;;;;;5111608;28;20839;-55
2020/12/25 06:41:00;;;;;;;8.90;2.20;;;;;;;;;;5089792;28;20519;-55
2020/12/25 06:43:28;;;;;;;3.70;2.50;;;;;;;;;;5109466;28;20424;-55
2020/12/25 06:45:58;;;;;;;6.03;3.07;;;;;;;;;;5094388;28;20417;-55
2020/12/25 06:48:28;;;;;;;4.70;2.57;;;;;;;;;;5096570;28;20446;-55
2020/12/25 06:50:55;;;;;;;10.43;2.97;;;;;;;;;;5095340;28;20852;-55
2020/12/25 06:53:36;;;;;;;4.80;2.57;;;;;;;;;;5106417;28;20440;-55
2020/12/25 06:56:08;;;;;;;3.07;2.03;;;;;;;;;;5076065;28;20416;-55
2020/12/25 06:58:40;;;;;;;6.20;2.17;;;;;;;;;;5096958;28;20420;-55
2020/12/25 07:01:06;;;;;;;6.37;2.43;;;;;;;;;;5103637;27;20434;-56
2020/12/25 07:03:36;;;;;;;6.63;2.50;;;;;;;;;;5087357;28;20946;-55
2020/12/25 07:06:03;;;;;;;5.90;2.87;;;;;;;;;;5101434;28;20458;-55
2020/12/25 07:08:33;;;;;;;4.13;2.60;;;;;;;;;;5101048;28;20518;-55
2020/12/25 07:11:09;;;;;;;6.10;2.30;;;;;;;;;;5097145;28;20422;-55
2020/12/25 07:13:38;;;;;;;8.37;3.20;;;;;;;;;;5104069;28;20879;-55
2020/12/25 07:16:05;;;;;;;3.53;2.33;;;;;;;;;;5087974;28;20475;-56
2020/12/25 07:18:31;;;;;;;5.77;3.03;;;;;;;;;;5104800;28;20432;-56
2020/12/25 07:21:01;;;;;;;4.50;2.17;;;;;;;;;;5100478;28;20417;-56
2020/12/25 07:23:27;;;;;;;8.10;3.00;;;;;;;;;;5112865;28;20412;-55
2020/12/25 07:25:57;;;;;;;6.33;3.20;;;;;;;;;;5092717;27;20477;-55
2020/12/25 07:28:27;;;;;;;6.80;2.87;;;;;;;;;;5086431;28;20449;-55
2020/12/25 07:30:54;;;;;;;8.17;2.67;;;;;;;;;;5092038;28;20457;-55
2020/12/25 07:33:20;;;;;;;6.97;2.90;;;;;;;;;;5092255;28;20471;-57
2020/12/25 07:35:46;;;;;;;2.80;2.03;;;;;;;;;;5074015;28;20406;-56
2020/12/25 07:38:14;;;;;;;3.23;1.90;;;;;;;;;;5085354;28;20417;-55
2020/12/25 07:40:40;;;;;;;6.30;2.50;;;;;;;;;;5112063;28;20894;-55
2020/12/25 07:43:06;;;;;;;5.17;2.07;;;;;;;;;;5101236;28;20432;-55
2020/12/25 07:45:33;;;;;;;5.03;2.63;;;;;;;;;;5096514;27;20432;-56
2020/12/25 07:48:00;;;;;;;4.87;2.87;;;;;;;;;;5093951;28;20453;-55
2020/12/25 07:50:26;;;;;;;4.87;2.20;;;;;;;;;;5109010;28;20945;-55
2020/12/25 07:52:52;;;;;;;6.47;2.10;;;;;;;;;;5109176;28;20429;-55
2020/12/25 07:55:19;;;;;;;5.67;2.40;;;;;;;;;;5099213;28;20175;-55
2020/12/25 07:57:48;;;;;;;4.93;2.40;;;;;;;;;;5092080;28;20207;-55
2020/12/25 08:00:14;;;;;;;5.57;1.97;;;;;;;;;;5113788;27;20435;-55
2020/12/25 08:02:42;;;;;;;2.63;2.07;;;;;;;;;;5093934;28;20478;-57
2020/12/25 08:05:11;;;;;;;4.90;1.90;;;;;;;;;;5100037;28;20444;-55
2020/12/25 08:07:41;;;;;;;4.40;1.70;;;;;;;;;;5095691;28;20461;-55
2020/12/25 08:10:10;;;;;;;4.80;2.20;;;;;;;;;;5106288;28;20413;-55
2020/12/25 08:12:37;;;;;;;4.47;2.23;;;;;;;;;;5104752;28;20482;-55
2020/12/25 08:15:03;;;;;;;5.43;1.93;;;;;;;;;;5068198;28;20552;-55
2020/12/25 08:17:29;;;;;;;2.17;1.53;;;;;;;;;;5080349;28;20501;-55
2020/12/25 08:19:55;;;;;;;4.67;1.80;;;;;;;;;;5086668;28;20171;-55
2020/12/25 08:22:21;;;;;;;3.27;1.67;;;;;;;;;;5093728;28;21163;-56
2020/12/25 08:24:47;;;;;;;4.53;1.70;;;;;;;;;;5088621;28;20214;-55
2020/12/25 08:27:17;;;;;;;2.43;1.93;;;;;;;;;;5101484;28;20481;-55
2020/12/25 08:29:43;;;;;;;6.07;1.77;;;;;;;;;;5089394;27;20178;-55
2020/12/25 08:32:09;;;;;;;4.00;1.73;;;;;;;;;;5108485;27;20470;-55
2020/12/25 08:34:35;;;;;;;5.37;2.00;;;;;;;;;;5078521;28;20426;-55
2020/12/25 08:37:04;;;;;;;3.43;2.10;;;;;;;;;;5111013;27;20452;-56
2020/12/25 08:39:31;;;;;;;5.43;2.00;;;;;;;;;;5109335;28;20436;-55
2020/12/25 08:41:58;;;;;;;3.43;1.47;;;;;;;;;;5091696;28;20414;-55
2020/12/25 08:44:24;;;;;;;2.57;1.57;;;;;;;;;;5080002;28;20434;-55
2020/12/25 08:46:51;;;;;;;2.87;1.50;;;;;;;;;;5102177;28;20180;-56
2020/12/25 08:49:27;;;;;;;3.97;2.00;;;;;;;;;;5111591;27;21023;-55
2020/12/25 08:51:53;;;;;;;3.57;2.30;;;;;;;;;;5096034;28;20761;-56
2020/12/25 08:54:26;;;;;;;4.17;1.70;;;;;;;;;;5084388;28;20422;-55
2020/12/25 08:56:53;;;;;;;4.70;2.00;;;;;;;;;;5109088;28;20414;-55
2020/12/25 08:59:22;;;;;;;2.77;1.73;;;;;;;;;;5099414;27;20757;-55
2020/12/25 09:01:48;;;;;;;4.57;2.13;;;;;;;;;;5093610;28;20418;-55
2020/12/25 09:04:18;;;;;;;5.33;1.80;;;;;;;;;;5089727;28;20420;-55
2020/12/25 09:06:45;;;;;;;2.93;1.53;;;;;;;;;;5102260;28;20414;-55
2020/12/25 09:09:12;;;;;;;3.13;1.83;;;;;;;;;;5104993;28;20441;-57
2020/12/25 09:11:38;;;;;;;5.47;1.97;;;;;;;;;;5092104;28;20420;-55
2020/12/25 09:14:04;;;;;;;6.87;2.57;;;;;;;;;;5102669;28;20424;-56
2020/12/25 09:16:30;;;;;;;5.20;1.80;;;;;;;;;;5110851;28;20416;-56
2020/12/25 09:18:56;;;;;;;3.57;1.80;;;;;;;;;;5090474;28;20455;-56
2020/12/25 09:21:24;;;;;;;4.57;2.63;;;;;;;;;;5107367;28;20428;-56
2020/12/25 09:23:50;;;;;;;8.27;2.50;;;;;;;;;;5107472;28;20420;-55
2020/12/25 09:26:16;;;;;;;6.73;2.17;;;;;;;;;;5109834;28;20416;-55
2020/12/25 09:28:43;;;;;;;5.67;2.23;;;;;;;;;;5106278;28;20468;-56
2020/12/25 09:31:11;;;;;;;3.47;1.80;;;;;;;;;;5109427;27;20242;-56
2020/12/25 09:33:37;;;;;;;4.53;2.20;;;;;;;;;;5101540;28;20829;-58
2020/12/25 09:36:07;;;;;;;3.80;1.67;;;;;;;;;;5093063;28;20413;-56
2020/12/25 09:38:33;;;;;;;6.23;1.70;;;;;;;;;;5110230;28;20421;-56
2020/12/25 09:41:00;;;;;;;4.27;1.90;;;;;;;;;;5110621;28;20401;-56
2020/12/25 09:43:28;;;;;;;6.37;2.70;;;;;;;;;;5092058;28;20409;-56
2020/12/25 09:45:54;;;;;;;4.70;2.07;;;;;;;;;;5110550;28;20922;-56
2020/12/25 09:48:20;;;;;;;3.40;1.63;;;;;;;;;;5096558;28;20458;-55
2020/12/25 09:50:46;;;;;;;9.07;2.03;;;;;;;;;;5079312;28;20452;-55
2020/12/25 09:53:12;;;;;;;6.20;2.00;;;;;;;;;;5110350;28;20448;-57
2020/12/25 09:55:40;;;;;;;4.83;2.50;;;;;;;;;;5108995;28;20265;-55
2020/12/25 09:58:06;;;;;;;4.97;2.40;;;;;;;;;;5079506;28;20180;-56
2020/12/25 10:00:32;;;;;;;9.00;2.87;;;;;;;;;;5101045;28;20455;-55
2020/12/25 10:02:59;;;;;;;5.80;2.60;;;;;;;;;;5096386;28;20412;-55
2020/12/25 10:05:25;;;;;;;5.43;2.53;;;;;;;;;;5101644;28;20465;-55
2020/12/25 10:07:54;;;;;;;5.40;2.20;;;;;;;;;;5107722;28;20448;-55
2020/12/25 10:10:21;;;;;;;3.97;2.13;;;;;;;;;;5107905;28;20409;-55
2020/12/25 10:12:47;;;;;;;3.57;2.33;;;;;;;;;;5093504;28;20445;-57
2020/12/25 10:15:14;;;;;;;4.33;2.20;;;;;;;;;;5080791;28;20182;-56
2020/12/25 10:17:40;;;;;;;8.80;3.10;;;;;;;;;;5087237;28;20771;-56
2020/12/25 10:20:06;;;;;;;5.80;2.90;;;;;;;;;;5106366;28;20504;-56
2020/12/25 10:22:32;;;;;;;5.47;3.13;;;;;;;;;;5099631;28;20438;-56
2020/12/25 10:24:58;;;;;;;5.97;2.80;;;;;;;;;;5100668;28;20426;-55
2020/12/25 10:27:25;;;;;;;8.30;2.90;;;;;;;;;;5098075;28;20489;-56
2020/12/25 10:29:51;;;;;;;8.93;3.60;;;;;;;;;;5110955;28;20262;-55
2020/12/25 10:32:17;;;;;;;9.87;3.47;;;;;;;;;;5099438;28;20513;-57
2020/12/25 10:34:43;;;;;;;6.43;3.20;;;;;;;;;;5092317;28;20607;-55
2020/12/25 10:37:09;;;;;;;8.47;4.07;;;;;;;;;;5108998;28;20175;-55
2020/12/25 10:39:37;;;;;;;7.80;4.33;;;;;;;;;;5102967;28;20876;-55
2020/12/25 10:42:06;;;;;;;10.50;3.80;;;;;;;;;;5102444;28;20426;-56
2020/12/25 10:44:32;;;;;;;7.60;3.50;;;;;;;;;;5113751;28;21039;-56
2020/12/25 10:46:59;;;;;;;7.30;3.50;;;;;;;;;;5106310;28;20432;-55
2020/12/25 10:49:25;;;;;;;5.20;2.87;;;;;;;;;;5105794;27;20713;-55
2020/12/25 10:51:51;;;;;;;5.70;3.13;;;;;;;;;;5103318;28;20414;-56
2020/12/25 10:54:17;;;;;;;8.20;2.80;;;;;;;;;;5113912;28;20419;-58
2020/12/25 10:56:43;;;;;;;5.17;2.53;;;;;;;;;;5114273;28;20195;-56
2020/12/25 10:59:09;;;;;;;5.27;2.67;;;;;;;;;;5119140;27;20182;-56
2020/12/25 11:01:35;;;;;;;3.80;3.00;;;;;;;;;;5113187;27;20212;-57
2020/12/25 11:04:01;;;;;;;5.27;2.50;;;;;;;;;;5114059;28;20171;-56
2020/12/25 11:06:37;;;;;;;4.23;1.93;;;;;;;;;;5101362;28;20951;-58
2020/12/25 11:09:04;;;;;;;5.80;2.17;;;;;;;;;;5113390;28;20248;-58
2020/12/25 11:11:31;;;;;;;7.97;2.77;;;;;;;;;;5113947;28;20405;-57
2020/12/25 11:13:58;;;;;;;5.30;2.00;;;;;;;;;;5104901;27;20565;-58
2020/12/25 11:16:25;;;;;;;5.33;1.93;;;;;;;;;;5112337;27;20425;-57
2020/12/25 11:18:51;;;;;;;4.80;2.17;;;;;;;;;;5111031;27;20418;-56
2020/12/25 11:21:21;;;;;;;7.80;2.33;;;;;;;;;;5112863;28;21048;-60
2020/12/25 11:23:48;;;;;;;8.73;2.77;;;;;;;;;;5102030;28;20191;-58
2020/12/25 11:26:20;;;;;;;6.50;2.23;;;;;;;;;;5110075;28;20915;-57
2020/12/25 11:28:46;;;;;;;7.60;2.37;;;;;;;;;;5115023;27;20460;-59
2020/12/25 11:31:12;;;;;;;3.37;1.87;;;;;;;;;;5105779;27;20664;-58
2020/12/25 11:33:38;;;;;;;4.43;2.43;;;;;;;;;;5117458;27;20254;-57
2020/12/25 11:36:05;;;;;;;4.40;2.23;;;;;;;;;;5098021;28;20220;-58
2020/12/25 11:38:31;;;;;;;6.67;2.17;;;;;;;;;;5100273;28;20421;-59
2020/12/25 11:40:57;;;;;;;6.47;2.20;;;;;;;;;;5117338;27;20178;-57
2020/12/25 11:43:23;;;;;;;7.07;1.87;;;;;;;;;;5121030;27;20174;-57
2020/12/25 11:45:49;;;;;;;5.90;2.27;;;;;;;;;;5117059;27;20182;-57
2020/12/25 11:48:15;;;;;;;4.57;2.03;;;;;;;;;;5115010;27;20663;-57
2020/12/25 11:50:41;;;;;;;5.47;1.57;;;;;;;;;;5100126;27;20649;-60
2020/12/25 11:53:07;;;;;;;6.30;2.00;;;;;;;;;;5109298;28;20176;-58
2020/12/25 11:55:33;;;;;;;4.87;2.17;;;;;;;;;;5107730;27;20202;-58
2020/12/25 11:57:59;;;;;;;6.00;2.43;;;;;;;;;;5108096;28;20540;-57
2020/12/25 12:00:25;;;;;;;4.77;2.03;;;;;;;;;;5111719;27;20202;-56
2020/12/25 12:02:51;;;;;;;5.87;2.10;;;;;;;;;;5103306;28;20233;-60
2020/12/25 12:05:17;;;;;;;7.13;1.77;;;;;;;;;;5100592;27;20237;-57
2020/12/25 12:07:43;;;;;;;3.40;2.03;;;;;;;;;;5106959;27;20196;-58
2020/12/25 12:10:09;;;;;;;5.87;1.50;;;;;;;;;;5096763;28;20180;-57
2020/12/25 12:12:35;;;;;;;4.03;1.50;;;;;;;;;;5102998;27;20175;-58
2020/12/25 12:15:01;;;;;;;7.20;2.23;;;;;;;;;;5118993;27;20179;-58
2020/12/25 12:17:27;;;;;;;6.97;1.97;;;;;;;;;;5089099;28;20234;-58
2020/12/25 12:19:53;;;;;;;4.67;1.50;;;;;;;;;;5103814;28;20175;-57
2020/12/25 12:22:19;;;;;;;3.70;1.53;;;;;;;;;;5111476;28;20197;-57
2020/12/25 12:24:45;;;;;;;5.57;1.63;;;;;;;;;;5100395;28;20180;-57
2020/12/25 12:27:11;;;;;;;5.20;1.77;;;;;;;;;;5098928;28;20255;-58
2020/12/25 12:29:37;;;;;;;3.50;1.40;;;;;;;;;;5107122;27;20203;-56
2020/12/25 12:32:03;;;;;;;6.60;1.80;;;;;;;;;;5110774;27;20250;-57
2020/12/25 12:34:29;;;;;;;2.97;1.63;;;;;;;;;;5109329;27;20512;-57
2020/12/25 12:36:55;;;;;;;7.30;1.90;;;;;;;;;;5102543;28;20186;-59
2020/12/25 12:39:21;;;;;;;6.03;1.83;;;;;;;;;;5100242;28;20175;-57
2020/12/25 12:41:50;;;;;;;3.30;1.37;;;;;;;;;;5082776;28;20217;-58
2020/12/25 12:44:16;;;;;;;2.70;1.33;;;;;;;;;;5109881;28;20227;-57
2020/12/25 12:46:42;;;;;;;6.23;1.50;;;;;;;;;;5095932;28;20256;-59
2020/12/25 12:49:08;;;;;;;3.13;1.00;;;;;;;;;;5092294;28;20195;-59
2020/12/25 12:51:34;;;;;;;3.50;1.80;;;;;;;;;;5091016;28;20164;-60
2020/12/25 12:54:00;;;;;;;5.30;1.70;;;;;;;;;;5092669;28;20199;-57
2020/12/25 12:56:26;;;;;;;5.30;1.37;;;;;;;;;;5100570;28;20215;-57
2020/12/25 12:58:52;;;;;;;3.13;1.33;;;;;;;;;;5097254;28;20276;-59
2020/12/25 13:01:22;;;;;;;5.73;1.60;;;;;;;;;;5082654;28;20316;-58
2020/12/25 13:03:48;;;;;;;4.93;2.07;;;;;;;;;;5106714;28;20191;-57
2020/12/25 13:06:14;;;;;;;3.93;1.87;;;;;;;;;;5110575;28;20707;-58
2020/12/25 13:08:40;;;;;;;6.40;2.93;;;;;;;;;;5112230;27;20773;-57
2020/12/25 13:11:06;;;;;;;6.30;2.70;;;;;;;;;;5097932;27;20182;-61
2020/12/25 13:13:32;;;;;;;5.80;1.90;;;;;;;;;;5108614;27;20210;-60
2020/12/25 13:15:58;;;;;;;3.10;1.93;;;;;;;;;;5110381;27;20203;-57
2020/12/25 13:18:24;;;;;;;6.43;2.00;;;;;;;;;;5121735;27;20209;-58
2020/12/25 13:20:50;;;;;;;5.07;2.20;;;;;;;;;;5120503;27;20171;-58
2020/12/25 13:23:16;;;;;;;7.07;2.97;;;;;;;;;;5114337;28;20185;-59
2020/12/25 13:25:42;;;;;;;6.43;2.90;;;;;;;;;;5113570;27;20210;-57
2020/12/25 13:28:08;;;;;;;10.57;2.93;;;;;;;;;;5120424;28;20249;-57
2020/12/25 13:30:34;;;;;;;4.17;2.47;;;;;;;;;;5120741;28;20194;-57
2020/12/25 13:33:00;;;;;;;7.40;3.03;;;;;;;;;;5121612;27;20547;-57
2020/12/25 13:35:26;;;;;;;10.93;3.43;;;;;;;;;;5119215;28;20183;-57
2020/12/25 13:37:52;;;;;;;8.63;3.20;;;;;;;;;;5131396;28;20254;-60
2020/12/25 13:40:18;;;;;;;13.33;3.77;;;;;;;;;;5126841;28;20174;-58
2020/12/25 13:42:44;;;;;;;5.13;2.83;;;;;;;;;;5115135;28;20175;-57
2020/12/25 13:45:10;;;;;;;9.53;3.10;;;;;;;;;;5119553;28;20178;-58
2020/12/25 13:47:36;;;;;;;6.43;2.73;;;;;;;;;;5132219;28;20239;-58
2020/12/25 13:50:03;;;;;;;11.23;3.67;;;;;;;;;;5131827;28;20162;-56
2020/12/25 13:52:29;;;;;;;14.90;3.23;;;;;;;;;;5131766;28;20262;-58
2020/12/25 13:54:55;;;;;;;12.70;3.60;;;;;;;;;;5115476;28;20258;-58
2020/12/25 13:57:21;;;;;;;7.83;3.47;;;;;;;;;;5111558;28;20648;-57
2020/12/25 13:59:48;;;;;;;8.67;3.63;;;;;;;;;;5120909;28;20179;-58
2020/12/25 14:02:15;;;;;;;7.87;3.17;;;;;;;;;;5103497;28;20179;-57
2020/12/25 14:04:41;;;;;;;6.23;2.90;;;;;;;;;;5122003;28;20210;-57
2020/12/25 14:07:07;;;;;;;7.87;2.70;;;;;;;;;;5121036;28;20201;-59
2020/12/25 14:09:33;;;;;;;5.03;2.17;;;;;;;;;;5120650;28;20183;-61
2020/12/25 14:11:59;;;;;;;7.43;2.67;;;;;;;;;;5116027;28;20186;-58
2020/12/25 14:14:25;;;;;;;6.90;2.33;;;;;;;;;;5102548;27;20198;-59
2020/12/25 14:16:52;;;;;;;8.07;2.53;;;;;;;;;;5113809;27;20544;-58
2020/12/25 14:19:19;;;;;;;7.20;2.63;;;;;;;;;;5112625;27;20641;-58
2020/12/25 14:21:45;;;;;;;7.97;2.67;;;;;;;;;;5112707;28;20587;-58
2020/12/25 14:24:12;;;;;;;5.27;2.27;;;;;;;;;;5114847;28;20217;-59
2020/12/25 14:26:38;;;;;;;6.83;2.50;;;;;;;;;;5089397;28;20213;-57
2020/12/25 14:29:05;;;;;;;7.53;2.10;;;;;;;;;;5110230;28;20196;-58
2020/12/25 14:31:34;;;;;;;4.30;2.10;;;;;;;;;;5115517;27;20186;-58
2020/12/25 14:34:00;;;;;;;6.93;2.37;;;;;;;;;;5113015;27;20203;-58
2020/12/25 14:36:26;;;;;;;5.17;2.20;;;;;;;;;;5100545;28;20179;-58
2020/12/25 14:38:52;;;;;;;7.67;2.40;;;;;;;;;;5103264;28;20171;-58
2020/12/25 14:41:25;;;;;;;3.63;1.97;;;;;;;;;;5112335;27;20182;-61